createdAt,value
2017-11-18T00:00:35.614Z,79.04
2017-11-18T00:01:46.079Z,79.28
2017-11-18T00:02:56.126Z,79
2017-11-18T00:04:06.370Z,79
2017-11-18T00:05:16.656Z,79
2017-11-18T00:06:26.887Z,79.19
2017-11-18T00:07:37.119Z,78.72
2017-11-18T00:08:47.337Z,79.1
2017-11-18T00:09:57.552Z,79.1
2017-11-18T00:11:07.762Z,79.19
2017-11-18T00:12:18.034Z,79.19
2017-11-18T00:13:28.408Z,79.19
2017-11-18T00:14:38.727Z,78.91
2017-11-18T00:15:48.703Z,78.81
2017-11-18T00:16:58.680Z,79.28
2017-11-18T00:18:08.979Z,79.66
2017-11-18T00:19:19.195Z,79.76
2017-11-18T00:20:29.488Z,79.76
2017-11-18T00:21:40.690Z,79.76
2017-11-18T00:22:50.694Z,79.76
2017-11-18T00:24:00.972Z,79.85
2017-11-18T00:25:11.303Z,79.76
2017-11-18T00:26:21.551Z,79.66
2017-11-18T00:27:31.790Z,79.66
2017-11-18T00:28:42.015Z,79.76
2017-11-18T00:29:52.304Z,79.76
2017-11-18T00:31:02.581Z,79.85
2017-11-18T00:32:12.309Z,79.76
2017-11-18T00:33:22.380Z,79.76
2017-11-18T00:34:32.349Z,79.76
2017-11-18T00:35:42.845Z,79.66
2017-11-18T00:36:53.125Z,79.76
2017-11-18T00:38:03.095Z,79.66
2017-11-18T00:39:13.326Z,79.66
2017-11-18T00:40:23.571Z,79.66
2017-11-18T00:41:33.163Z,79.85
2017-11-18T00:42:43.078Z,79.76
2017-11-18T00:43:53.572Z,79.66
2017-11-18T00:45:03.788Z,79.66
2017-11-18T00:46:13.794Z,79.76
2017-11-18T00:47:24.019Z,79.85
2017-11-18T00:48:34.273Z,79.57
2017-11-18T00:49:44.497Z,79.57
2017-11-18T00:50:54.533Z,79.66
2017-11-18T00:52:04.872Z,79.76
2017-11-18T00:53:14.732Z,79.76
2017-11-18T00:54:24.781Z,79.85
2017-11-18T00:55:35.058Z,79.66
2017-11-18T00:56:45.317Z,79.38
2017-11-18T00:57:55.601Z,79.76
2017-11-18T00:59:05.864Z,79.57
2017-11-18T01:00:16.122Z,79.85
2017-11-18T01:01:25.491Z,79.76
2017-11-18T01:02:35.715Z,79.38
2017-11-18T01:03:45.732Z,79.28
2017-11-18T01:04:55.794Z,79.28
2017-11-18T01:06:06.038Z,79.19
2017-11-18T01:07:16.270Z,79.28
2017-11-18T01:08:26.549Z,79.19
2017-11-18T01:09:36.841Z,79.19
2017-11-18T01:10:46.538Z,78.81
2017-11-18T01:11:56.792Z,79
2017-11-18T01:13:07.063Z,79
2017-11-18T01:14:16.770Z,79.19
2017-11-18T01:15:26.786Z,78.81
2017-11-18T01:16:37.048Z,79.28
2017-11-18T01:17:47.281Z,79.1
2017-11-18T01:18:57.550Z,79.38
2017-11-18T01:20:07.976Z,79.19
2017-11-18T01:21:18.056Z,79.19
2017-11-18T01:22:28.358Z,79.28
2017-11-18T01:23:38.617Z,79.38
2017-11-18T01:24:48.335Z,79.28
2017-11-18T01:25:58.354Z,79.1
2017-11-18T01:27:09.563Z,79.19
2017-11-18T01:28:19.554Z,79.28
2017-11-18T01:29:29.823Z,79.76
2017-11-18T01:30:40.039Z,79.66
2017-11-18T01:31:50.032Z,79.76
2017-11-18T01:32:59.982Z,79.76
2017-11-18T01:34:10.217Z,79.57
2017-11-18T01:35:20.095Z,79.66
2017-11-18T01:36:30.399Z,79.57
2017-11-18T01:37:40.661Z,79.76
2017-11-18T01:38:50.917Z,79.76
2017-11-18T01:40:01.175Z,79.76
2017-11-18T01:41:11.143Z,79.66
2017-11-18T01:42:21.099Z,79.57
2017-11-18T01:43:31.061Z,79.57
2017-11-18T01:44:41.332Z,79.76
2017-11-18T01:45:51.817Z,79.76
2017-11-18T01:47:02.076Z,79.85
2017-11-18T01:48:12.325Z,79.76
2017-11-18T01:49:22.394Z,79.76
2017-11-18T01:50:32.613Z,79.57
2017-11-18T01:51:42.829Z,79.76
2017-11-18T01:52:53.082Z,79.57
2017-11-18T01:54:03.329Z,79.76
2017-11-18T01:55:13.576Z,79.76
2017-11-18T01:56:23.832Z,79.1
2017-11-18T01:57:33.591Z,79.38
2017-11-18T01:58:43.828Z,79.19
2017-11-18T01:59:53.666Z,79.38
2017-11-18T02:01:03.910Z,79.38
2017-11-18T02:02:14.259Z,79.1
2017-11-18T02:03:24.476Z,79
2017-11-18T02:04:34.713Z,79
2017-11-18T02:05:44.929Z,79.38
2017-11-18T02:06:54.876Z,79.19
2017-11-18T02:08:05.126Z,79.28
2017-11-18T02:09:15.625Z,79.1
2017-11-18T02:10:25.836Z,79
2017-11-18T02:11:35.804Z,79
2017-11-18T02:12:46.323Z,79
2017-11-18T02:13:56.538Z,79.23
2017-11-18T02:15:06.518Z,79.28
2017-11-18T02:16:16.440Z,79.19
2017-11-18T02:17:26.693Z,79.28
2017-11-18T02:18:36.913Z,79.28
2017-11-18T02:19:46.876Z,79.33
2017-11-18T02:20:57.109Z,79.33
2017-11-18T02:22:07.288Z,78.85
2017-11-18T02:23:17.303Z,79.04
2017-11-18T02:24:26.872Z,79.14
2017-11-18T02:25:37.250Z,79.23
2017-11-18T02:26:47.572Z,79.04
2017-11-18T02:27:57.508Z,79.14
2017-11-18T02:29:07.751Z,79.14
2017-11-18T02:30:17.971Z,79.14
2017-11-18T02:31:27.826Z,79.33
2017-11-18T02:32:38.065Z,79.28
2017-11-18T02:33:48.536Z,79.19
2017-11-18T02:34:58.738Z,79.28
2017-11-18T02:36:08.389Z,78.91
2017-11-18T02:37:18.246Z,79.28
2017-11-18T02:38:28.221Z,79.1
2017-11-18T02:39:38.517Z,79
2017-11-18T02:40:48.791Z,79.28
2017-11-18T02:41:59.295Z,79.1
2017-11-18T02:43:09.262Z,79
2017-11-18T02:44:19.312Z,79.28
2017-11-18T02:45:28.641Z,79.19
2017-11-18T02:46:38.317Z,79.19
2017-11-18T02:47:48.591Z,79.19
2017-11-18T02:48:58.797Z,79.1
2017-11-18T02:50:09.017Z,79.19
2017-11-18T02:51:18.987Z,79.95
2017-11-18T02:52:29.211Z,79.66
2017-11-18T02:53:39.414Z,79.66
2017-11-18T02:54:49.388Z,79.85
2017-11-18T02:55:59.288Z,79.28
2017-11-18T02:57:09.289Z,79.52
2017-11-18T02:58:19.216Z,79.33
2017-11-18T02:59:29.061Z,79.52
2017-11-18T03:00:39.536Z,79.04
2017-11-18T03:01:49.503Z,79.23
2017-11-18T03:02:59.704Z,79.23
2017-11-18T03:04:09.970Z,78.95
2017-11-18T03:05:20.183Z,79.14
2017-11-18T03:06:30.426Z,79.14
2017-11-18T03:07:40.637Z,79.14
2017-11-18T03:08:50.864Z,79.23
2017-11-18T03:10:01.136Z,78.95
2017-11-18T03:11:11.184Z,78.75
2017-11-18T03:12:21.398Z,78.66
2017-11-18T03:13:31.630Z,78.66
2017-11-18T03:14:41.730Z,78.75
2017-11-18T03:15:52.037Z,78.95
2017-11-18T03:17:02.030Z,78.38
2017-11-18T03:18:12.385Z,78.38
2017-11-18T03:19:22.053Z,78.66
2017-11-18T03:20:31.994Z,78.75
2017-11-18T03:21:42.205Z,78.62
2017-11-18T03:22:52.407Z,78.56
2017-11-18T03:24:02.389Z,78.95
2017-11-18T03:25:12.654Z,78.66
2017-11-18T03:26:22.693Z,78.95
2017-11-18T03:27:32.920Z,78.62
2017-11-18T03:28:42.867Z,78.66
2017-11-18T03:29:52.841Z,78.72
2017-11-18T03:31:03.358Z,78.91
2017-11-18T03:32:13.316Z,78.81
2017-11-18T03:33:23.766Z,78.72
2017-11-18T03:34:33.983Z,78.91
2017-11-18T03:35:44.205Z,79.1
2017-11-18T03:36:54.434Z,78.91
2017-11-18T03:38:04.781Z,79
2017-11-18T03:39:14.739Z,79.1
2017-11-18T03:40:25.111Z,79.1
2017-11-18T03:41:35.525Z,79.19
2017-11-18T03:42:45.549Z,79.1
2017-11-18T03:43:55.760Z,79.1
2017-11-18T03:45:05.981Z,79.14
2017-11-18T03:46:15.431Z,78.81
2017-11-18T03:47:25.972Z,79
2017-11-18T03:48:36.219Z,79.19
2017-11-18T03:49:46.511Z,79.28
2017-11-18T03:50:56.091Z,79.19
2017-11-18T03:52:06.303Z,79
2017-11-18T03:53:16.799Z,79
2017-11-18T03:54:26.729Z,79.1
2017-11-18T03:55:36.689Z,79.38
2017-11-18T03:56:46.918Z,79.38
2017-11-18T03:57:57.447Z,79.28
2017-11-18T03:59:07.380Z,79.19
2017-11-18T04:00:17.601Z,79.38
2017-11-18T04:01:27.588Z,79.28
2017-11-18T04:02:37.849Z,79.28
2017-11-18T04:03:48.273Z,79.28
2017-11-18T04:04:58.233Z,79.28
2017-11-18T04:06:08.247Z,79.28
2017-11-18T04:07:18.234Z,79.33
2017-11-18T04:08:28.206Z,79.42
2017-11-18T04:09:38.407Z,79.28
2017-11-18T04:10:48.630Z,79.19
2017-11-18T04:11:58.896Z,79.19
2017-11-18T04:13:08.830Z,79.28
2017-11-18T04:14:18.549Z,79.33
2017-11-18T04:15:28.546Z,79.23
2017-11-18T04:16:38.790Z,79.23
2017-11-18T04:17:49.009Z,79.28
2017-11-18T04:18:59.217Z,79.04
2017-11-18T04:20:09.426Z,79.1
2017-11-18T04:21:19.638Z,79.1
2017-11-18T04:22:29.606Z,79.38
2017-11-18T04:23:40.125Z,79.38
2017-11-18T04:24:50.177Z,79.38
2017-11-18T04:26:00.413Z,79.1
2017-11-18T04:27:10.374Z,79.28
2017-11-18T04:28:20.595Z,79.28
2017-11-18T04:29:30.639Z,79.38
2017-11-18T04:30:40.590Z,79.47
2017-11-18T04:31:50.556Z,79.28
2017-11-18T04:33:32.657Z,79.1
2017-11-18T04:34:42.895Z,79.1
2017-11-18T04:35:52.732Z,78.81
2017-11-18T04:37:03.039Z,79.28
2017-11-18T04:38:12.907Z,79.1
2017-11-18T04:39:23.138Z,78.91
2017-11-18T04:40:33.358Z,79
2017-11-18T04:41:43.460Z,79.28
2017-11-18T04:42:53.397Z,78.81
2017-11-18T04:44:03.367Z,79
2017-11-18T04:45:13.685Z,79.1
2017-11-18T04:46:24.132Z,79.1
2017-11-18T04:47:34.375Z,79.28
2017-11-18T04:48:44.632Z,79.28
2017-11-18T04:49:55.074Z,78.91
2017-11-18T04:51:05.296Z,78.91
2017-11-18T04:52:15.318Z,79
2017-11-18T04:53:25.789Z,79.19
2017-11-18T04:54:35.990Z,79.38
2017-11-18T04:55:46.261Z,79.1
2017-11-18T04:56:56.286Z,79.1
2017-11-18T04:58:06.665Z,78.91
2017-11-18T04:59:16.894Z,78.91
2017-11-18T05:00:27.129Z,78.81
2017-11-18T05:01:37.356Z,79.1
2017-11-18T05:02:47.561Z,79.19
2017-11-18T05:03:57.815Z,79.28
2017-11-18T05:05:08.047Z,79.66
2017-11-18T05:06:17.786Z,79.95
2017-11-18T05:07:28.069Z,79.66
2017-11-18T05:08:37.987Z,79.85
2017-11-18T05:09:47.933Z,79.47
2017-11-18T05:10:58.196Z,79.85
2017-11-18T05:12:08.497Z,79.76
2017-11-18T05:13:18.360Z,79.76
2017-11-18T05:14:28.312Z,80.14
2017-11-18T05:15:38.541Z,80.14
2017-11-18T05:16:48.698Z,80.04
2017-11-18T05:17:58.989Z,79.95
2017-11-18T05:19:08.998Z,80.14
2017-11-18T05:20:19.281Z,79.95
2017-11-18T05:21:29.242Z,79.85
2017-11-18T05:22:39.185Z,80.04
2017-11-18T05:23:49.142Z,80.67
2017-11-18T05:24:59.130Z,80.43
2017-11-18T05:26:09.450Z,80.62
2017-11-18T05:27:19.695Z,80.14
2017-11-18T05:28:29.636Z,80.38
2017-11-18T05:29:39.588Z,80.48
2017-11-18T05:30:49.276Z,80.95
2017-11-18T05:31:59.550Z,80.38
2017-11-18T05:33:09.809Z,80.29
2017-11-18T05:34:19.641Z,80.29
2017-11-18T05:35:29.903Z,80.33
2017-11-18T05:36:39.780Z,81.18
2017-11-18T05:37:50.021Z,80.99
2017-11-18T05:38:59.975Z,80.43
2017-11-18T05:40:10.184Z,80.04
2017-11-18T05:41:19.968Z,80.9
2017-11-18T05:42:30.329Z,80.62
2017-11-18T05:43:40.054Z,80.8
2017-11-18T05:44:50.007Z,80.9
2017-11-18T05:45:59.999Z,81.05
2017-11-18T05:47:10.257Z,80.9
2017-11-18T05:48:20.450Z,80.86
2017-11-18T05:49:30.874Z,80.33
2017-11-18T05:50:41.086Z,80.95
2017-11-18T05:51:51.430Z,80.99
2017-11-18T05:53:33.501Z,80.8
2017-11-18T05:54:43.745Z,80.95
2017-11-18T05:55:53.967Z,80.57
2017-11-18T05:57:04.172Z,81.05
2017-11-18T05:58:14.442Z,80.52
2017-11-18T05:59:24.665Z,81.09
2017-11-18T06:00:34.884Z,81.09
2017-11-18T06:01:44.891Z,81.09
2017-11-18T06:02:55.148Z,80.9
2017-11-18T06:04:05.449Z,80.9
2017-11-18T06:05:15.659Z,80.52
2017-11-18T06:06:25.818Z,80.99
2017-11-18T06:07:36.079Z,80.71
2017-11-18T06:08:46.030Z,80.8
2017-11-18T06:09:56.277Z,80.62
2017-11-18T06:11:06.206Z,80.71
2017-11-18T06:12:16.191Z,80.99
2017-11-18T06:13:26.416Z,80.62
2017-11-18T06:14:36.476Z,80.62
2017-11-18T06:15:46.673Z,80.71
2017-11-18T06:16:56.866Z,80.9
2017-11-18T06:18:06.800Z,80.99
2017-11-18T06:19:17.795Z,80.71
2017-11-18T06:20:27.464Z,80.71
2017-11-18T06:21:37.455Z,80.99
2017-11-18T06:22:47.409Z,80.99
2017-11-18T06:23:57.724Z,80.9
2017-11-18T06:25:07.935Z,80.52
2017-11-18T06:26:18.176Z,80.62
2017-11-18T06:27:28.020Z,81.09
2017-11-18T06:28:38.236Z,81.09
2017-11-18T06:29:48.492Z,80.99
2017-11-18T06:30:58.735Z,80.99
2017-11-18T06:32:08.793Z,80.99
2017-11-18T06:33:19.012Z,80.62
2017-11-18T06:34:29.379Z,80.99
2017-11-18T06:35:39.680Z,80.8
2017-11-18T06:36:49.937Z,80.9
2017-11-18T06:38:00.143Z,80.9
2017-11-18T06:39:10.374Z,80.99
2017-11-18T06:40:20.357Z,80.71
2017-11-18T06:41:30.345Z,80.9
2017-11-18T06:42:40.277Z,80.62
2017-11-18T06:43:50.243Z,80.9
2017-11-18T06:45:00.475Z,80.43
2017-11-18T06:46:10.528Z,80.24
2017-11-18T06:47:20.738Z,80.24
2017-11-18T06:48:30.583Z,80.24
2017-11-18T06:49:41.020Z,80.24
2017-11-18T06:50:50.990Z,80.24
2017-11-18T06:52:00.947Z,80.24
2017-11-18T06:53:11.272Z,80.24
2017-11-18T06:54:21.652Z,80.24
2017-11-18T06:55:31.627Z,80.24
2017-11-18T06:56:41.577Z,80.24
2017-11-18T06:57:51.802Z,80.43
2017-11-18T06:59:02.078Z,80.9
2017-11-18T07:00:12.305Z,80.43
2017-11-18T07:01:22.530Z,80.8
2017-11-18T07:02:32.740Z,80.24
2017-11-18T07:03:42.993Z,80.14
2017-11-18T07:04:53.250Z,80.24
2017-11-18T07:06:03.473Z,80.33
2017-11-18T07:07:13.712Z,80.43
2017-11-18T07:08:24.157Z,80.62
2017-11-18T07:09:34.397Z,80.43
2017-11-18T07:10:44.602Z,80.24
2017-11-18T07:11:54.877Z,80.24
2017-11-18T07:13:04.838Z,80.52
2017-11-18T07:14:14.797Z,80.62
2017-11-18T07:15:25.073Z,80.33
2017-11-18T07:16:35.064Z,80.33
2017-11-18T07:17:44.938Z,80.43
2017-11-18T07:18:55.175Z,80.43
2017-11-18T07:20:05.472Z,80.52
2017-11-18T07:21:15.720Z,80.33
2017-11-18T07:22:25.592Z,80.43
2017-11-18T07:23:35.859Z,80.33
2017-11-18T07:24:45.851Z,80.33
2017-11-18T07:25:56.106Z,80.62
2017-11-18T07:27:06.318Z,80.62
2017-11-18T07:28:16.590Z,80.33
2017-11-18T07:29:26.600Z,80.33
2017-11-18T07:30:36.851Z,80.33
2017-11-18T07:31:46.809Z,80.24
2017-11-18T07:32:57.043Z,80.14
2017-11-18T07:34:07.248Z,80.24
2017-11-18T07:35:17.487Z,80.24
2017-11-18T07:36:27.340Z,80.33
2017-11-18T07:37:37.059Z,80.52
2017-11-18T07:38:47.316Z,80.43
2017-11-18T07:39:57.292Z,80.9
2017-11-18T07:41:07.585Z,80.24
2017-11-18T07:42:17.801Z,80.33
2017-11-18T07:43:27.644Z,80.43
2017-11-18T07:44:37.594Z,80.43
2017-11-18T07:45:47.627Z,80.24
2017-11-18T07:46:57.873Z,80.43
2017-11-18T07:48:08.117Z,80.99
2017-11-18T07:49:18.146Z,80.99
2017-11-18T07:50:27.825Z,80.9
2017-11-18T07:51:38.302Z,80.9
2017-11-18T07:52:48.614Z,81.09
2017-11-18T07:53:58.764Z,80.9
2017-11-18T07:55:09.103Z,80.71
2017-11-18T07:56:19.421Z,80.8
2017-11-18T07:57:29.673Z,80.71
2017-11-18T07:58:39.923Z,80.9
2017-11-18T07:59:50.159Z,80.9
2017-11-18T08:01:00.122Z,80.8
2017-11-18T08:02:10.303Z,80.9
2017-11-18T08:03:20.540Z,81.09
2017-11-18T08:04:30.772Z,81.18
2017-11-18T08:05:40.399Z,81.27
2017-11-18T08:06:50.624Z,80.99
2017-11-18T08:08:00.870Z,80.8
2017-11-18T08:09:11.240Z,81.37
2017-11-18T08:10:21.643Z,81.32
2017-11-18T08:11:31.859Z,81.37
2017-11-18T08:12:42.320Z,81.09
2017-11-18T08:13:52.563Z,81.23
2017-11-18T08:15:02.880Z,81.04
2017-11-18T08:16:13.219Z,81.13
2017-11-18T08:17:23.233Z,81.23
2017-11-18T08:18:33.301Z,80.84
2017-11-18T08:19:43.516Z,81.04
2017-11-18T08:20:54.019Z,80.94
2017-11-18T08:22:04.281Z,80.94
2017-11-18T08:23:14.506Z,80.94
2017-11-18T08:24:24.750Z,81.13
2017-11-18T08:25:34.605Z,80.37
2017-11-18T08:26:44.980Z,81.04
2017-11-18T08:27:55.231Z,80.37
2017-11-18T08:29:05.557Z,80.27
2017-11-18T08:30:15.817Z,80.27
2017-11-18T08:31:25.784Z,80.56
2017-11-18T08:32:36.034Z,81.04
2017-11-18T08:33:46.266Z,80.37
2017-11-18T08:34:56.514Z,80.27
2017-11-18T08:36:06.754Z,80.27
2017-11-18T08:37:16.756Z,80.18
2017-11-18T08:38:26.628Z,80.27
2017-11-18T08:39:36.594Z,80.27
2017-11-18T08:40:46.920Z,80.65
2017-11-18T08:41:56.762Z,80.75
2017-11-18T08:43:06.843Z,80.46
2017-11-18T08:44:16.796Z,80.75
2017-11-18T08:45:26.814Z,80.08
2017-11-18T08:46:36.795Z,80.08
2017-11-18T08:47:47.022Z,79.99
2017-11-18T08:48:56.995Z,79.61
2017-11-18T08:50:07.313Z,79.61
2017-11-18T08:51:17.563Z,79.42
2017-11-18T08:52:27.822Z,79.99
2017-11-18T08:53:38.034Z,79.42
2017-11-18T08:54:48.320Z,78.85
2017-11-18T08:55:58.594Z,79.14
2017-11-18T08:57:08.573Z,79.33
2017-11-18T08:58:18.798Z,78.56
2017-11-18T08:59:29.037Z,78.38
2017-11-18T09:00:38.625Z,78.38
2017-11-18T09:01:49.012Z,78
2017-11-18T09:02:59.307Z,78
2017-11-18T09:04:09.343Z,78.28
2017-11-18T09:05:19.597Z,78
2017-11-18T09:06:29.892Z,78.19
2017-11-18T09:07:40.185Z,78.23
2017-11-18T09:08:50.401Z,78.23
2017-11-18T09:10:00.659Z,77.94
2017-11-18T09:11:10.256Z,78.13
2017-11-18T09:12:52.105Z,78.38
2017-11-18T09:14:02.398Z,78.42
2017-11-18T09:15:12.676Z,78.47
2017-11-18T09:16:22.986Z,78.28
2017-11-18T09:17:32.992Z,78
2017-11-18T09:18:42.899Z,78
2017-11-18T09:19:53.162Z,77.9
2017-11-18T09:21:03.192Z,78.23
2017-11-18T09:22:13.152Z,78.23
2017-11-18T09:23:22.746Z,78
2017-11-18T09:24:32.977Z,78.13
2017-11-18T09:25:42.686Z,78.28
2017-11-18T09:26:52.919Z,78.19
2017-11-18T09:28:03.383Z,78.42
2017-11-18T09:29:13.690Z,78.19
2017-11-18T09:30:23.945Z,78.19
2017-11-18T09:31:33.966Z,78.51
2017-11-18T09:32:43.953Z,78.13
2017-11-18T09:33:54.201Z,78.51
2017-11-18T09:35:04.472Z,78.42
2017-11-18T09:36:14.695Z,78.23
2017-11-18T09:37:24.291Z,78.32
2017-11-18T09:38:34.633Z,78.42
2017-11-18T09:39:44.240Z,78.13
2017-11-18T09:40:54.194Z,78.03
2017-11-18T09:42:04.259Z,77.75
2017-11-18T09:43:14.512Z,77.94
2017-11-18T09:44:24.496Z,77.75
2017-11-18T09:45:35.018Z,77.75
2017-11-18T09:46:45.014Z,77.66
2017-11-18T09:47:55.617Z,77.37
2017-11-18T09:49:06.105Z,77.09
2017-11-18T09:50:17.006Z,76.61
2017-11-18T09:51:27.378Z,76.61
2017-11-18T09:52:37.400Z,76.61
2017-11-18T09:53:47.884Z,76.8
2017-11-18T09:54:58.307Z,76.14
2017-11-18T09:56:08.361Z,75.67
2017-11-18T09:57:18.897Z,75.47
2017-11-18T09:58:29.102Z,75.19
2017-11-18T09:59:39.241Z,75.38
2017-11-18T10:00:49.497Z,75.85
2017-11-18T10:01:59.661Z,75.28
2017-11-18T10:03:10.124Z,75.57
2017-11-18T10:04:20.696Z,75.28
2017-11-18T10:05:30.796Z,75.09
2017-11-18T10:06:40.918Z,75.09
2017-11-18T10:07:51.320Z,75.28
2017-11-18T10:09:01.202Z,75.42
2017-11-18T10:10:11.723Z,75.28
2017-11-18T10:11:22.275Z,75.28
2017-11-18T10:12:34.416Z,75.67
2017-11-18T10:13:45.530Z,75.32
2017-11-18T10:14:56.456Z,75.89
2017-11-18T10:16:07.263Z,75.13
2017-11-18T10:17:17.720Z,75.23
2017-11-18T10:18:27.993Z,75.32
2017-11-18T10:19:37.984Z,75.23
2017-11-18T10:20:48.209Z,75.23
2017-11-18T10:21:58.661Z,74.94
2017-11-18T10:23:08.896Z,74.66
2017-11-18T10:24:19.133Z,74.37
2017-11-18T10:25:29.159Z,73.71
2017-11-18T10:26:39.203Z,73.99
2017-11-18T10:27:49.452Z,74.27
2017-11-18T10:28:59.736Z,73.8
2017-11-18T10:30:10.104Z,73.71
2017-11-18T10:31:20.099Z,73.9
2017-11-18T10:32:30.392Z,73.61
2017-11-18T10:33:40.637Z,73.52
2017-11-18T10:34:50.858Z,73.42
2017-11-18T10:36:00.890Z,73.52
2017-11-18T10:37:11.164Z,73.61
2017-11-18T10:38:21.045Z,72.75
2017-11-18T10:39:31.314Z,73.14
2017-11-18T10:40:41.684Z,72.95
2017-11-18T10:41:51.957Z,72.85
2017-11-18T10:43:02.213Z,73.04
2017-11-18T10:44:12.552Z,72.47
2017-11-18T10:45:22.265Z,72.95
2017-11-18T10:46:32.534Z,72.56
2017-11-18T10:47:42.810Z,72.47
2017-11-18T10:48:53.064Z,72.47
2017-11-18T10:50:03.397Z,72.47
2017-11-18T10:51:13.803Z,72.47
2017-11-18T10:52:23.491Z,72.19
2017-11-18T10:53:33.766Z,72.28
2017-11-18T10:54:44.022Z,71.81
2017-11-18T10:55:54.288Z,71.71
2017-11-18T10:57:04.528Z,72.28
2017-11-18T10:58:14.752Z,71.71
2017-11-18T10:59:25.019Z,71.52
2017-11-18T11:00:35.072Z,71.23
2017-11-18T11:01:45.167Z,71.56
2017-11-18T11:02:55.465Z,71.18
2017-11-18T11:04:05.456Z,71.08
2017-11-18T11:05:15.447Z,70.61
2017-11-18T11:06:25.972Z,70.51
2017-11-18T11:07:36.248Z,70.23
2017-11-18T11:08:46.598Z,70.42
2017-11-18T11:09:56.963Z,70.7
2017-11-18T11:11:07.015Z,69.75
2017-11-18T11:12:17.249Z,70.61
2017-11-18T11:13:27.477Z,70.51
2017-11-18T11:14:37.446Z,70.51
2017-11-18T11:15:47.712Z,70.32
2017-11-18T11:16:57.718Z,70.13
2017-11-18T11:18:07.818Z,70.32
2017-11-18T11:19:18.079Z,70.7
2017-11-18T11:20:28.324Z,70.13
2017-11-18T11:21:38.277Z,70.61
2017-11-18T11:22:48.575Z,70.7
2017-11-18T11:23:58.840Z,70.42
2017-11-18T11:25:09.126Z,70.79
2017-11-18T11:26:19.402Z,70.32
2017-11-18T11:27:29.426Z,69.94
2017-11-18T11:28:39.676Z,69.46
2017-11-18T11:29:50.045Z,69.56
2017-11-18T11:31:00.035Z,70.04
2017-11-18T11:32:10.353Z,69.85
2017-11-18T11:33:20.350Z,69.56
2017-11-18T11:34:30.407Z,69.66
2017-11-18T11:35:40.850Z,69.75
2017-11-18T11:36:51.146Z,69.66
2017-11-18T11:38:01.359Z,69.37
2017-11-18T11:39:11.680Z,69.85
2017-11-18T11:40:22.089Z,69.75
2017-11-18T11:41:32.461Z,69.85
2017-11-18T11:42:42.444Z,69.94
2017-11-18T11:43:52.409Z,69.09
2017-11-18T11:45:02.480Z,68.99
2017-11-18T11:46:13.033Z,69.09
2017-11-18T11:47:23.473Z,69.37
2017-11-18T11:48:33.757Z,69.09
2017-11-18T11:49:43.989Z,68.99
2017-11-18T11:50:54.218Z,69.09
2017-11-18T11:52:03.900Z,69.27
2017-11-18T11:53:14.204Z,68.9
2017-11-18T11:54:24.433Z,69.27
2017-11-18T11:55:34.972Z,69.27
2017-11-18T11:56:44.926Z,68.8
2017-11-18T11:57:54.658Z,68.9
2017-11-18T11:59:04.897Z,69.18
2017-11-18T12:00:14.512Z,68.8
2017-11-18T12:01:24.550Z,68.17
2017-11-18T12:02:34.516Z,68.46
2017-11-18T12:03:44.783Z,68.07
2017-11-18T12:04:55.018Z,67.32
2017-11-18T12:06:05.032Z,67.5
2017-11-18T12:07:15.397Z,67.88
2017-11-18T12:08:25.618Z,67.98
2017-11-18T12:09:35.874Z,68.17
2017-11-18T12:10:45.849Z,68.07
2017-11-18T12:11:56.122Z,67.32
2017-11-18T12:13:05.995Z,67.6
2017-11-18T12:14:16.039Z,67.22
2017-11-18T12:15:26.341Z,67.32
2017-11-18T12:16:36.584Z,67.5
2017-11-18T12:17:46.843Z,67.22
2017-11-18T12:18:57.066Z,67.69
2017-11-18T12:20:07.127Z,67.41
2017-11-18T12:21:17.371Z,67.5
2017-11-18T12:22:27.684Z,68.07
2017-11-18T12:23:37.953Z,67.98
2017-11-18T12:24:47.923Z,67.88
2017-11-18T12:25:57.901Z,67.98
2017-11-18T12:27:07.989Z,68.07
2017-11-18T12:28:17.877Z,68.46
2017-11-18T12:29:28.120Z,68.36
2017-11-18T12:30:38.113Z,67.5
2017-11-18T12:31:48.471Z,68.07
2017-11-18T12:32:58.484Z,67.5
2017-11-18T12:34:08.761Z,67.41
2017-11-18T12:35:19.168Z,67.5
2017-11-18T12:36:29.236Z,67.6
2017-11-18T12:37:39.715Z,67.32
2017-11-18T12:38:49.739Z,67.32
2017-11-18T12:39:59.895Z,67.5
2017-11-18T12:41:09.666Z,67.13
2017-11-18T12:42:20.012Z,67.03
2017-11-18T12:43:30.092Z,66.65
2017-11-18T12:44:40.076Z,66.84
2017-11-18T12:45:49.753Z,67.13
2017-11-18T12:46:59.743Z,67.22
2017-11-18T12:48:10.006Z,67.5
2017-11-18T12:49:20.418Z,67.98
2017-11-18T12:50:30.693Z,67.13
2017-11-18T12:51:40.947Z,67.32
2017-11-18T12:52:51.166Z,67.6
2017-11-18T12:54:01.390Z,67.32
2017-11-18T12:55:11.406Z,67.88
2017-11-18T12:56:21.224Z,67.6
2017-11-18T12:57:31.286Z,67.79
2017-11-18T12:58:41.282Z,67.98
2017-11-18T12:59:51.591Z,67.69
2017-11-18T13:01:01.619Z,67.69
2017-11-18T13:02:11.654Z,67.98
2017-11-18T13:03:21.660Z,67.79
2017-11-18T13:04:31.982Z,67.5
2017-11-18T13:05:42.442Z,67.79
2017-11-18T13:06:52.616Z,67.69
2017-11-18T13:08:02.625Z,67.5
2017-11-18T13:09:12.867Z,67.88
2017-11-18T13:10:23.171Z,67.98
2017-11-18T13:11:33.009Z,68.46
2017-11-18T13:12:43.299Z,68.17
2017-11-18T13:13:53.893Z,68.07
2017-11-18T13:15:03.955Z,68.17
2017-11-18T13:16:14.299Z,68.36
2017-11-18T13:17:24.835Z,68.17
2017-11-18T13:18:35.090Z,68.27
2017-11-18T13:19:45.577Z,68.36
2017-11-18T13:20:55.854Z,68.93
2017-11-18T13:22:06.088Z,68.46
2017-11-18T13:23:16.337Z,68.46
2017-11-18T13:24:25.997Z,68.46
2017-11-18T13:25:36.225Z,68.55
2017-11-18T13:26:46.468Z,68.52
2017-11-18T13:27:56.459Z,68.23
2017-11-18T13:29:06.815Z,68.17
2017-11-18T13:30:16.812Z,68.07
2017-11-18T13:31:26.558Z,68.74
2017-11-18T13:32:36.804Z,68.46
2017-11-18T13:33:46.771Z,68.84
2017-11-18T13:34:57.020Z,68.65
2017-11-18T13:36:07.478Z,68.84
2017-11-18T13:37:17.284Z,68.65
2017-11-18T13:38:27.868Z,68.17
2017-11-18T13:39:38.252Z,68.55
2017-11-18T13:40:48.231Z,68.65
2017-11-18T13:41:58.450Z,68.84
2017-11-18T13:43:08.446Z,68.74
2017-11-18T13:44:18.794Z,68.55
2017-11-18T13:45:29.023Z,68.74
2017-11-18T13:46:39.276Z,68.74
2017-11-18T13:47:49.508Z,68.65
2017-11-18T13:48:59.781Z,68.46
2017-11-18T13:50:10.087Z,68.61
2017-11-18T13:51:20.356Z,68.65
2017-11-18T13:52:30.133Z,68.84
2017-11-18T13:53:40.486Z,68.55
2017-11-18T13:54:50.211Z,68.42
2017-11-18T13:56:00.283Z,68.71
2017-11-18T13:57:10.573Z,68.61
2017-11-18T13:58:21.061Z,68.42
2017-11-18T13:59:31.162Z,68.71
2017-11-18T14:00:41.451Z,68.52
2017-11-18T14:01:51.512Z,68.74
2017-11-18T14:03:01.457Z,68.84
2017-11-18T14:04:11.741Z,68.42
2017-11-18T14:05:22.022Z,68.55
2017-11-18T14:06:32.313Z,68.17
2017-11-18T14:07:42.666Z,68.33
2017-11-18T14:08:53.070Z,68.46
2017-11-18T14:10:03.317Z,68.27
2017-11-18T14:11:13.190Z,68.07
2017-11-18T14:12:23.192Z,68.27
2017-11-18T14:13:33.433Z,68.27
2017-11-18T14:14:43.672Z,68.27
2017-11-18T14:15:53.720Z,68.46
2017-11-18T14:17:04.129Z,68.46
2017-11-18T14:18:14.376Z,68.04
2017-11-18T14:19:24.375Z,68.61
2017-11-18T14:20:34.851Z,68.8
2017-11-18T14:21:44.863Z,69.27
2017-11-18T14:22:55.096Z,69.27
2017-11-18T14:24:05.334Z,69.66
2017-11-18T14:25:15.215Z,69.85
2017-11-18T14:26:25.463Z,69.46
2017-11-18T14:27:35.481Z,70.23
2017-11-18T14:28:45.473Z,70.51
2017-11-18T14:29:55.705Z,70.79
2017-11-18T14:31:05.956Z,70.61
2017-11-18T14:32:16.343Z,70.79
2017-11-18T14:33:26.441Z,70.79
2017-11-18T14:34:36.756Z,71.08
2017-11-18T14:35:47.082Z,71.27
2017-11-18T14:36:57.398Z,71.27
2017-11-18T14:38:07.516Z,71.84
2017-11-18T14:39:17.762Z,71.37
2017-11-18T14:40:27.500Z,72.32
2017-11-18T14:41:37.716Z,72.7
2017-11-18T14:42:47.727Z,72.6
2017-11-18T14:43:58.081Z,72.7
2017-11-18T14:45:08.372Z,72.99
2017-11-18T14:46:18.328Z,73.36
2017-11-18T14:47:28.820Z,73.46
2017-11-18T14:48:38.799Z,73.65
2017-11-18T14:49:49.030Z,74.22
2017-11-18T14:50:59.271Z,74.12
2017-11-18T14:52:09.521Z,74.41
2017-11-18T14:53:19.866Z,74.79
2017-11-18T14:54:30.155Z,75.84
2017-11-18T14:55:40.120Z,75.84
2017-11-18T14:56:50.431Z,75.07
2017-11-18T14:58:00.145Z,75.64
2017-11-18T14:59:10.477Z,75.93
2017-11-18T15:00:20.869Z,75.74
2017-11-18T15:01:30.857Z,75.93
2017-11-18T15:02:41.395Z,75.45
2017-11-18T15:03:51.623Z,75.84
2017-11-18T15:05:01.944Z,75.79
2017-11-18T15:06:11.951Z,76.12
2017-11-18T15:07:21.693Z,76.4
2017-11-18T15:08:32.927Z,76.5
2017-11-18T15:09:43.158Z,76.84
2017-11-18T15:10:54.353Z,77.12